LFKB

Bastia-Poretta Airport

Bastia/Poretta, France
TAF LFKB 200800Z 2009/2109 23006KT 9999 FEW030 TX13/2013Z TN05/2104Z TEMPO 2009/2018 36010KT FEW030CB BKN150 PROB40 TEMPO 2013/2018 RA TEMPO 2018/2109 RA FEW035TCU
Issued Valid From Valid To
Jan-20 @ 08:00 UTC
(3 hours ago)
Jan-20 @ 09:00 UTC
(2 hours ago)
Jan-21 @ 09:00 UTC
(in 22 hours)
Jan-20 @ 09:00 to Jan-21 @ 09:00
TAF LFKB 200800Z 2009/2109 23006KT 9999 FEW030 TX13/2013Z TN05/2104Z
Wind Visibility Clouds
230° at 6 knots 10,000+ meters
  • Few at 3,000' AGL
Temporary Jan-20 @ 09:00 to Jan-20 @ 18:00
TEMPO 2009/2018 36010KT FEW030CB BKN150
Wind Clouds
360° at 10 knots
  • Few at 3,000' AGL
  • Broken at 15,000' AGL
Temporary  (Probability 40%) Jan-20 @ 13:00 to Jan-20 @ 18:00
PROB40 TEMPO 2013/2018 RA
Conditions
  • Rain
Temporary Jan-20 @ 18:00 to Jan-21 @ 09:00
TEMPO 2018/2109 RA FEW035TCU
Clouds Conditions
  • Few at 3,500' AGL
  • Rain
TAF LFKB 200800Z 2009/2109 23006KT 9999 FEW030 TX13/2013Z TN05/2104Z TEMPO 2009/2018 36010KT FEW030CB BKN150 PROB40 TEMPO 2013/2018 RA TEMPO 2018/2109 RA FEW035TCU
Issued Jan-20 @ 08:00 UTC
(3 hours ago)
Valid From Jan-20 @ 09:00 UTC
(2 hours ago)
Valid To Jan-21 @ 09:00 UTC
(in 22 hours)
Jan-20 @ 09:00 - Jan-21 @ 09:00
Wind Visibility
230° at 6 knots 10,000+ meters
Clouds
  • Few at 3,000' AGL
Temporary Jan-20 @ 09:00 - Jan-20 @ 18:00
Wind
360° at 10 knots
Clouds
  • Few at 3,000' AGL
  • Broken at 15,000' AGL
Probability 40% Temporary Jan-20 @ 13:00 - Jan-20 @ 18:00
Conditions
  • Rain
Temporary Jan-20 @ 18:00 - Jan-21 @ 09:00
Clouds
  • Few at 3,500' AGL
Conditions
  • Rain